Time;durP1;ratioP1;P1;durP2;ratioP2;P2;SDS_P1;SDS_P2;PMS_P1;PMS_P2;Temp;Humidity;BMP_temperature;BMP_pressure;BME280_temperature;BME280_humidity;BME280_pressure;Samples;Min_cycle;Max_cycle;Signal;HPM_P1;HPM_P2
2023/02/26 00:01:25;;;;;;;4.30;2.40;;;;;;;1.58;97.35;99423.98;187304;1232;43018;-72
2023/02/26 00:24:14;;;;;;;3.70;2.40;;;;;;;1.82;95.21;99452.29;186567;1235;43669;-91
2023/02/26 00:32:33;;;;;;;3.30;2.70;;;;;;;1.71;96.54;99455.72;187297;1234;43637;-71
2023/02/26 00:37:04;;;;;;;3.00;1.60;;;;;;;1.72;97.42;99459.48;187054;1234;43707;-70
2023/02/26 00:41:07;;;;;;;5.10;2.40;;;;;;;1.58;98.80;99452.79;187265;1234;58067;-72
2023/02/26 00:45:11;;;;;;;6.10;2.10;;;;;;;1.57;99.86;99457.23;187366;1234;43775;-69
2023/02/26 00:49:55;;;;;;;3.90;2.30;;;;;;;1.56;99.89;99455.85;187227;1234;43571;-70
2023/02/26 00:59:13;;;;;;;2.80;1.80;;;;;;;1.64;100.00;99465.02;187275;1237;43348;-70
2023/02/26 01:03:15;;;;;;;3.50;1.70;;;;;;;1.55;100.00;99467.78;186875;1234;57789;-73
2023/02/26 01:07:20;;;;;;;3.70;2.90;;;;;;;1.55;100.00;99472.50;187161;1234;43299;-70
2023/02/26 01:11:22;;;;;;;3.40;3.20;;;;;;;1.56;100.00;99478.27;187130;1234;43680;-69
2023/02/26 01:15:24;;;;;;;5.20;3.50;;;;;;;1.59;100.00;99477.58;187100;1234;43714;-71
2023/02/26 01:19:36;;;;;;;6.00;2.80;;;;;;;1.60;100.00;99484.30;187116;1234;42947;-68
2023/02/26 01:23:40;;;;;;;7.00;3.00;;;;;;;1.53;100.00;99485.77;187259;1234;59454;-72
2023/02/26 01:27:42;;;;;;;4.50;2.70;;;;;;;1.51;100.00;99485.02;187002;1234;43064;-68
2023/02/26 01:32:07;;;;;;;2.80;2.40;;;;;;;1.48;100.00;99488.68;186860;1237;43347;-69
2023/02/26 01:40:43;;;;;;;12.40;2.50;;;;;;;1.32;100.00;99495.70;187076;1234;43666;-68
2023/02/26 01:44:57;;;;;;;2.80;2.60;;;;;;;1.36;100.00;99501.73;187288;1234;57761;-69
2023/02/26 01:48:59;;;;;;;2.90;2.60;;;;;;;1.41;100.00;99509.14;187108;1234;43337;-69
2023/02/26 01:53:17;;;;;;;1.80;1.60;;;;;;;1.46;100.00;99512.89;187299;1234;43581;-71
2023/02/26 01:57:20;;;;;;;2.70;2.20;;;;;;;1.42;100.00;99516.09;187363;1234;43603;-70
2023/02/26 02:01:55;;;;;;;3.10;2.70;;;;;;;1.42;100.00;99524.63;187155;1234;43705;-69
2023/02/26 02:06:02;;;;;;;2.40;2.00;;;;;;;1.45;100.00;99527.63;187063;1234;57898;-70
2023/02/26 02:10:04;;;;;;;3.40;2.00;;;;;;;1.46;100.00;99533.70;187128;1235;43101;-71
2023/02/26 02:14:44;;;;;;;3.80;2.40;;;;;;;1.47;100.00;99537.14;186885;1234;43657;-71
2023/02/26 02:19:23;;;;;;;2.30;1.60;;;;;;;1.49;100.00;99546.11;187315;1234;43032;-70
2023/02/26 02:23:48;;;;;;;2.80;1.70;;;;;;;1.52;99.93;99552.05;187072;1234;43007;-70
2023/02/26 02:28:18;;;;;;;3.30;2.00;;;;;;;1.44;99.45;99557.20;187315;1233;57797;-70
2023/02/26 02:32:33;;;;;;;2.10;1.30;;;;;;;1.45;99.94;99566.56;187131;1234;43388;-72
2023/02/26 02:36:45;;;;;;;1.90;1.60;;;;;;;1.45;99.61;99573.38;187167;1233;42994;-70
2023/02/26 02:40:52;;;;;;;1.70;1.20;;;;;;;1.46;99.20;99579.79;187313;1233;43106;-70
2023/02/26 02:44:59;;;;;;;3.10;1.10;;;;;;;1.38;98.80;99592.65;187167;1234;42975;-69
2023/02/26 02:49:05;;;;;;;1.50;0.90;;;;;;;1.34;98.78;99593.21;187202;1234;57967;-69
2023/02/26 02:53:14;;;;;;;2.60;1.70;;;;;;;1.34;98.79;99590.98;187161;1233;43246;-72
2023/02/26 02:57:22;;;;;;;5.60;1.90;;;;;;;1.37;98.05;99599.36;187048;1233;42982;-70
2023/02/26 03:01:27;;;;;;;3.00;1.60;;;;;;;1.38;97.05;99609.06;187298;1234;43745;-71
2023/02/26 03:05:28;;;;;;;1.60;1.10;;;;;;;1.42;96.44;99619.02;187089;1234;42981;-69
2023/02/26 03:09:33;;;;;;;1.30;0.90;;;;;;;1.38;95.69;99624.11;187302;1234;58001;-69
2023/02/26 03:13:38;;;;;;;1.80;1.50;;;;;;;1.41;95.74;99632.16;187045;1235;43138;-70
2023/02/26 03:18:24;;;;;;;3.60;1.80;;;;;;;1.40;95.83;99635.86;187058;1235;42959;-70
2023/02/26 03:23:03;;;;;;;2.20;1.00;;;;;;;1.42;95.54;99639.61;185851;1241;43745;-69
2023/02/26 03:27:27;;;;;;;1.60;1.50;;;;;;;1.45;95.17;99653.27;185925;1245;43040;-71
2023/02/26 03:37:22;;;;;;;2.40;0.80;;;;;;;1.48;93.75;99677.55;185836;1241;43789;-71
2023/02/26 03:41:40;;;;;;;1.70;1.20;;;;;;;1.49;93.44;99678.54;185784;1240;43021;-71
2023/02/26 03:45:45;;;;;;;2.80;1.40;;;;;;;1.54;94.27;99687.73;185557;1241;325260;-69
2023/02/26 03:55:04;;;;;;;4.70;2.20;;;;;;;1.50;93.20;99701.02;185887;1241;59546;-70
2023/02/26 03:59:05;;;;;;;2.80;1.60;;;;;;;1.55;93.38;99711.26;186953;1235;43621;-72
2023/02/26 04:03:46;;;;;;;1.60;1.40;;;;;;;1.61;93.71;99715.31;186886;1235;43919;-69
2023/02/26 04:07:48;;;;;;;1.20;1.10;;;;;;;1.63;93.50;99719.27;187314;1235;43020;-69
2023/02/26 04:11:52;;;;;;;1.40;1.30;;;;;;;1.62;93.35;99720.48;187290;1233;42950;-69
2023/02/26 04:15:53;;;;;;;1.50;1.00;;;;;;;1.59;92.38;99727.17;186821;1234;57898;-69
2023/02/26 04:19:55;;;;;;;1.20;1.10;;;;;;;1.51;92.55;99732.09;187050;1235;42985;-73
2023/02/26 04:23:56;;;;;;;2.70;1.50;;;;;;;1.49;93.22;99738.68;187060;1233;42927;-70
2023/02/26 04:27:58;;;;;;;5.90;2.60;;;;;;;1.42;92.71;99739.89;186840;1235;43603;-68
2023/02/26 04:32:00;;;;;;;3.10;1.30;;;;;;;1.32;93.02;99742.17;186836;1235;43675;-67
2023/02/26 04:36:03;;;;;;;2.20;1.00;;;;;;;1.26;92.97;99744.91;186902;1234;59177;-68
2023/02/26 04:51:00;;;;;;;2.50;0.90;;;;;;;1.30;92.37;99757.81;159523;1292;77767;-69
2023/02/26 04:55:07;;;;;;;2.50;1.10;;;;;;;1.31;92.16;99763.36;180371;1256;43767;-70
2023/02/26 04:59:12;;;;;;;3.00;1.60;;;;;;;1.26;92.54;99769.74;180781;1253;405625;-71
2023/02/26 05:03:17;;;;;;;3.40;0.80;;;;;;;1.23;93.00;99772.67;181502;1253;44343;-69
2023/02/26 05:07:20;;;;;;;2.50;1.90;;;;;;;1.15;93.67;99774.86;181294;1253;44346;-69
2023/02/26 05:11:49;;;;;;;5.90;1.30;;;;;;;1.06;94.20;99781.23;181445;1254;57868;-70
2023/02/26 05:15:53;;;;;;;3.20;1.30;;;;;;;1.08;94.36;99792.83;181388;1253;44578;-72
2023/02/26 05:19:56;;;;;;;4.50;1.10;;;;;;;1.17;94.55;99796.21;181160;1254;43773;-70
2023/02/26 05:23:59;;;;;;;2.10;1.10;;;;;;;1.15;94.53;99797.52;181312;1253;43558;-70
2023/02/26 05:28:28;;;;;;;3.20;1.20;;;;;;;1.16;94.77;99799.39;181197;1253;45275;-69
2023/02/26 05:32:40;;;;;;;4.40;1.10;;;;;;;1.13;94.84;99804.42;180928;1253;58278;-69
2023/02/26 05:36:43;;;;;;;12.20;2.50;;;;;;;1.17;95.02;99812.30;181287;1254;44592;-70
2023/02/26 05:40:48;;;;;;;3.00;1.60;;;;;;;1.05;94.47;99821.27;181368;1253;44757;-74
2023/02/26 05:44:51;;;;;;;1.70;1.30;;;;;;;1.01;94.93;99827.91;181350;1253;43844;-73
2023/02/26 05:48:54;;;;;;;3.20;1.40;;;;;;;1.09;95.67;99839.42;181237;1253;43834;-69
2023/02/26 05:52:57;;;;;;;3.10;1.50;;;;;;;1.10;95.23;99849.30;181233;1253;57990;-72
2023/02/26 05:57:00;;;;;;;2.70;1.30;;;;;;;1.03;95.23;99846.37;181309;1253;44547;-70
2023/02/26 06:01:29;;;;;;;1.80;1.60;;;;;;;1.09;96.47;99859.14;181167;1253;46040;-72
2023/02/26 06:05:34;;;;;;;2.00;1.50;;;;;;;1.09;95.66;99871.68;180940;1253;45026;-73
2023/02/26 06:09:40;;;;;;;2.00;1.60;;;;;;;1.06;95.17;99876.03;181041;1254;45235;-72
2023/02/26 06:13:48;;;;;;;3.40;1.70;;;;;;;1.09;95.26;99884.30;180926;1253;58747;-71
2023/02/26 06:17:51;;;;;;;2.70;1.80;;;;;;;1.11;95.16;99893.25;181503;1253;43677;-70
2023/02/26 06:21:55;;;;;;;1.30;1.00;;;;;;;1.05;95.41;99899.14;181094;1253;46051;-70
2023/02/26 06:25:58;;;;;;;13.30;1.30;;;;;;;1.14;94.96;99910.27;180994;1254;45951;-71
2023/02/26 06:30:22;;;;;;;1.80;1.20;;;;;;;1.18;93.93;99913.91;181305;1254;46185;-72
2023/02/26 06:34:32;;;;;;;3.90;2.20;;;;;;;1.15;94.55;99918.57;181247;1253;59482;-70
2023/02/26 06:38:35;;;;;;;1.90;1.30;;;;;;;1.15;94.21;99928.17;181237;1253;45924;-73
2023/02/26 06:42:38;;;;;;;3.30;1.40;;;;;;;1.21;94.37;99936.98;181007;1254;43551;-73
2023/02/26 06:46:41;;;;;;;1.60;0.80;;;;;;;1.25;94.53;99937.15;181081;1253;46012;-72
2023/02/26 06:50:44;;;;;;;8.10;2.10;;;;;;;1.26;93.65;99944.23;181142;1253;44668;-69
2023/02/26 06:54:47;;;;;;;2.40;1.40;;;;;;;1.21;93.39;99954.98;181174;1253;57903;-69
2023/02/26 06:58:50;;;;;;;12.70;2.60;;;;;;;1.20;93.63;99960.45;181336;1253;43505;-69
2023/02/26 07:02:53;;;;;;;6.00;2.60;;;;;;;1.24;94.19;99962.50;181208;1253;44001;-69
2023/02/26 07:06:59;;;;;;;3.40;2.10;;;;;;;1.20;93.63;99971.27;181021;1253;44105;-70
2023/02/26 07:11:16;;;;;;;3.40;1.80;;;;;;;1.26;93.71;99975.00;181174;1253;44566;-70
2023/02/26 07:15:19;;;;;;;3.60;1.80;;;;;;;1.25;94.13;99982.39;181119;1253;57942;-69
2023/02/26 07:19:47;;;;;;;4.00;1.70;;;;;;;1.31;93.75;99992.41;181505;1247;45927;-68
2023/02/26 07:38:56;;;;;;;3.50;2.70;;;;;;;1.54;92.97;100014.38;170515;1261;77491;-74
2023/02/26 07:42:59;;;;;;;10.80;2.30;;;;;;;1.61;92.68;100022.42;180547;1261;43670;-70
2023/02/26 07:47:02;;;;;;;3.60;1.60;;;;;;;1.65;91.92;100024.33;180562;1261;43507;-69
2023/02/26 07:51:25;;;;;;;2.30;0.90;;;;;;;1.72;91.34;100036.21;179847;1262;45921;-70
2023/02/26 07:55:30;;;;;;;10.20;2.90;;;;;;;1.65;92.37;100034.66;179818;1261;46055;-69
2023/02/26 07:59:33;;;;;;;3.20;1.20;;;;;;;1.70;91.54;100044.37;179922;1262;58678;-72
2023/02/26 08:03:38;;;;;;;9.40;2.90;;;;;;;1.72;92.10;100050.21;179797;1262;43778;-71
2023/02/26 08:07:41;;;;;;;3.50;2.20;;;;;;;1.68;92.35;100059.50;180088;1262;43483;-69
2023/02/26 08:11:44;;;;;;;2.90;1.60;;;;;;;1.68;92.45;100068.40;180113;1262;43650;-74
2023/02/26 08:16:41;;;;;;;2.80;2.60;;;;;;;1.67;92.68;100073.91;179980;1261;43533;-72
2023/02/26 08:20:45;;;;;;;2.00;1.10;;;;;;;1.70;92.07;100071.83;180088;1260;58190;-71
2023/02/26 08:24:49;;;;;;;5.10;1.80;;;;;;;1.78;92.33;100076.68;180210;1261;44626;-70
2023/02/26 08:28:52;;;;;;;2.70;1.80;;;;;;;1.88;91.84;100084.60;179862;1262;43616;-72
2023/02/26 08:32:55;;;;;;;5.50;1.80;;;;;;;1.94;92.26;100090.08;180215;1261;45973;-70
2023/02/26 08:36:58;;;;;;;2.60;1.60;;;;;;;2.02;91.29;100100.20;180313;1262;44054;-72
2023/02/26 08:41:02;;;;;;;1.70;1.50;;;;;;;2.07;90.68;100108.15;180224;1262;57908;-73
2023/02/26 08:45:06;;;;;;;2.10;1.90;;;;;;;2.02;91.24;100113.63;180216;1262;46105;-73
2023/02/26 08:49:08;;;;;;;10.10;2.40;;;;;;;2.20;92.59;100118.04;180283;1261;45927;-71
2023/02/26 08:53:11;;;;;;;5.90;2.40;;;;;;;2.25;91.37;100131.27;180370;1262;45955;-75
2023/02/26 08:57:14;;;;;;;3.30;2.30;;;;;;;2.25;91.18;100133.89;180445;1262;44567;-71
2023/02/26 09:06:58;;;;;;;5.10;2.70;;;;;;;2.33;91.64;100146.09;180382;1261;44653;-74
2023/02/26 09:11:24;;;;;;;6.00;2.80;;;;;;;2.42;91.30;100147.55;180545;1262;45933;-74
2023/02/26 09:15:27;;;;;;;2.90;2.40;;;;;;;2.47;90.21;100156.45;180335;1261;45949;-73
2023/02/26 09:19:30;;;;;;;5.00;2.50;;;;;;;2.46;89.48;100159.65;180429;1262;43748;-73
2023/02/26 09:24:31;;;;;;;3.70;1.90;;;;;;;2.45;89.56;100167.19;180413;1261;57920;-72
2023/02/26 09:28:34;;;;;;;5.80;3.60;;;;;;;2.43;89.50;100176.40;180380;1262;45999;-74
2023/02/26 09:33:02;;;;;;;3.30;1.90;;;;;;;2.42;90.96;100188.88;180276;1261;44654;-73
2023/02/26 09:37:08;;;;;;;4.70;2.90;;;;;;;2.40;90.86;100196.13;180520;1261;43518;-72
2023/02/26 09:41:45;;;;;;;;;;;;;;;2.42;90.80;100201.45;180409;1261;43877;-73
2023/02/26 09:45:52;;;;;;;2.10;1.90;;;;;;;2.41;90.01;100211.31;179790;1268;57682;-73
2023/02/26 10:10:13;;;;;;;5.50;2.70;;;;;;;2.63;90.59;100242.45;180870;1260;78399;-74
2023/02/26 10:39:49;;;;;;;7.50;3.00;;;;;;;2.91;87.24;100275.60;162436;1258;81997;-73
2023/02/26 11:00:52;;;;;;;8.30;5.00;;;;;;;2.80;89.33;100290.85;181333;1261;58255;-74
2023/02/26 11:04:56;;;;;;;4.50;3.40;;;;;;;2.86;89.58;100298.61;181209;1261;44084;-74
2023/02/26 11:09:33;;;;;;;2.90;2.60;;;;;;;3.01;88.82;100304.19;181321;1262;43086;-73
2023/02/26 11:13:37;;;;;;;4.10;3.50;;;;;;;3.21;89.22;100303.88;181257;1261;46023;-75
2023/02/26 11:17:41;;;;;;;5.90;2.50;;;;;;;3.41;88.65;100307.28;180864;1259;82606;-86
2023/02/26 11:21:46;;;;;;;3.90;1.90;;;;;;;3.50;86.18;100312.41;180702;1259;59649;-85
2023/02/26 11:26:01;;;;;;;3.20;2.80;;;;;;;3.52;83.27;100319.66;180873;1261;44267;-85
2023/02/26 11:30:25;;;;;;;3.20;2.00;;;;;;;3.61;83.50;100315.86;180740;1259;44205;-85
2023/02/26 11:34:29;;;;;;;6.60;3.40;;;;;;;3.74;82.29;100321.17;180931;1259;44110;-85
2023/02/26 11:38:32;;;;;;;2.40;2.00;;;;;;;3.90;81.55;100322.63;180930;1260;43950;-84
2023/02/26 11:42:47;;;;;;;5.00;2.80;;;;;;;4.08;79.87;100317.42;180930;1259;60254;-84
2023/02/26 11:46:54;;;;;;;5.40;2.80;;;;;;;4.24;80.78;100321.83;180906;1259;43987;-86
2023/02/26 11:51:01;;;;;;;5.80;3.40;;;;;;;4.24;81.62;100328.89;180770;1259;44104;-87
2023/02/26 11:55:44;;;;;;;3.10;2.80;;;;;;;4.00;79.95;100336.45;180931;1259;44298;-86
2023/02/26 11:59:51;;;;;;;5.10;3.10;;;;;;;3.75;80.10;100336.52;180891;1260;43790;-85
2023/02/26 12:04:00;;;;;;;4.00;2.30;;;;;;;3.67;81.21;100338.02;180913;1259;58224;-86
2023/02/26 12:08:19;;;;;;;5.10;3.60;;;;;;;3.49;81.74;100344.89;180746;1262;44022;-85
2023/02/26 12:12:40;;;;;;;5.30;3.20;;;;;;;3.41;83.12;100353.53;180865;1262;43785;-85
2023/02/26 12:17:08;;;;;;;9.30;4.50;;;;;;;3.28;84.58;100360.33;180910;1261;44069;-86
2023/02/26 12:21:30;;;;;;;7.50;4.30;;;;;;;3.12;89.66;100369.90;180808;1259;44780;-85
2023/02/26 12:25:57;;;;;;;5.10;2.90;;;;;;;3.11;90.86;100370.09;180852;1259;60597;-85
2023/02/26 12:30:23;;;;;;;6.90;4.10;;;;;;;3.14;88.62;100370.12;180829;1259;43911;-85
2023/02/26 12:34:38;;;;;;;6.90;3.70;;;;;;;3.33;87.30;100371.48;180845;1261;44087;-85
2023/02/26 12:39:22;;;;;;;8.30;3.50;;;;;;;3.52;84.66;100375.29;180880;1259;44018;-85
2023/02/26 12:43:42;;;;;;;7.00;2.60;;;;;;;3.75;86.09;100372.70;180921;1260;49180;-85
2023/02/26 12:48:17;;;;;;;14.00;3.70;;;;;;;3.84;81.44;100375.40;180909;1259;58240;-86
2023/02/26 12:52:42;;;;;;;9.30;3.00;;;;;;;3.96;79.96;100377.41;180870;1259;44343;-85
2023/02/26 12:56:51;;;;;;;4.80;2.60;;;;;;;4.02;78.63;100381.79;180879;1262;44077;-86
2023/02/26 13:01:19;;;;;;;5.40;2.50;;;;;;;3.98;76.75;100386.76;180851;1262;43947;-86
2023/02/26 13:05:43;;;;;;;3.40;2.50;;;;;;;3.97;77.18;100389.28;180846;1261;44104;-85
2023/02/26 13:10:18;;;;;;;3.60;3.00;;;;;;;3.88;77.67;100394.30;180881;1259;59207;-86
2023/02/26 13:14:55;;;;;;;7.00;2.80;;;;;;;3.86;79.88;100397.05;180919;1259;44504;-85
2023/02/26 13:19:02;;;;;;;3.50;2.70;;;;;;;3.85;79.61;100403.77;180180;1268;44322;-84
2023/02/26 13:23:19;;;;;;;2.60;2.20;;;;;;;3.85;77.15;100403.26;180228;1267;43948;-85
2023/02/26 13:27:27;;;;;;;18.90;3.10;;;;;;;3.76;75.03;100402.11;180235;1267;44455;-86
2023/02/26 13:31:58;;;;;;;4.20;2.30;;;;;;;3.80;77.10;100406.27;180038;1267;57647;-86
2023/02/26 13:36:03;;;;;;;7.40;3.90;;;;;;;3.86;78.53;100409.30;180045;1267;43978;-86
2023/02/26 13:40:34;;;;;;;8.60;4.10;;;;;;;3.99;77.82;100414.95;179955;1268;43786;-84
2023/02/26 13:44:49;;;;;;;6.00;3.00;;;;;;;4.14;74.53;100419.47;180204;1268;44114;-84
2023/02/26 13:49:16;;;;;;;4.40;2.10;;;;;;;4.17;74.20;100426.52;180081;1267;44269;-85
2023/02/26 13:53:22;;;;;;;4.60;1.90;;;;;;;4.21;77.25;100427.67;180114;1267;58637;-84
2023/02/26 13:57:35;;;;;;;5.30;2.20;;;;;;;4.11;80.97;100428.04;180964;1259;43975;-84
2023/02/26 14:01:52;;;;;;;5.90;2.40;;;;;;;3.95;79.80;100430.60;181005;1259;43855;-85
2023/02/26 14:06:23;;;;;;;6.70;2.60;;;;;;;3.98;79.20;100435.91;180825;1262;43906;-85
2023/02/26 14:10:44;;;;;;;2.30;1.70;;;;;;;4.00;77.23;100435.98;180932;1259;44091;-85
2023/02/26 14:15:12;;;;;;;9.60;3.00;;;;;;;4.14;76.01;100433.84;180740;1260;58198;-85
2023/02/26 14:19:39;;;;;;;3.60;2.00;;;;;;;4.17;75.81;100431.94;180790;1261;44283;-86
2023/02/26 14:23:48;;;;;;;8.10;3.10;;;;;;;4.19;75.68;100432.54;180815;1259;44073;-85
2023/02/26 14:28:20;;;;;;;6.50;3.00;;;;;;;4.29;75.42;100441.66;180797;1259;44124;-84
2023/02/26 14:32:29;;;;;;;5.20;2.70;;;;;;;4.29;76.63;100440.42;180865;1264;44387;-85
2023/02/26 14:36:41;;;;;;;1.90;1.70;;;;;;;4.35;73.54;100443.45;180985;1259;58546;-84
2023/02/26 14:40:53;;;;;;;2.50;1.10;;;;;;;4.46;70.93;100449.39;180820;1259;44068;-84
2023/02/26 14:45:09;;;;;;;3.20;1.60;;;;;;;4.47;67.16;100447.05;180789;1260;44007;-84
2023/02/26 14:49:25;;;;;;;3.30;1.40;;;;;;;4.36;71.25;100451.98;181000;1259;44349;-85
2023/02/26 14:53:49;;;;;;;4.80;1.40;;;;;;;4.23;68.78;100463.05;180851;1259;44104;-84
2023/02/26 14:58:14;;;;;;;8.40;2.20;;;;;;;4.16;69.22;100460.95;180962;1259;59355;-85
2023/02/26 15:02:32;;;;;;;6.60;2.20;;;;;;;4.12;68.73;100469.03;180992;1260;44043;-84
2023/02/26 15:06:54;;;;;;;12.70;2.40;;;;;;;4.17;71.95;100471.06;180876;1261;44189;-84
2023/02/26 15:11:22;;;;;;;8.60;1.90;;;;;;;4.27;72.71;100479.15;180916;1259;44451;-84
2023/02/26 15:15:42;;;;;;;3.70;1.60;;;;;;;4.41;72.68;100480.73;180943;1262;44053;-85
2023/02/26 15:20:02;;;;;;;5.50;2.40;;;;;;;4.48;73.85;100477.56;180832;1260;65889;-85
2023/02/26 15:24:11;;;;;;;3.40;1.90;;;;;;;4.53;72.14;100481.65;180924;1259;44155;-84
2023/02/26 15:28:24;;;;;;;9.90;4.10;;;;;;;4.44;72.66;100485.12;180929;1260;43951;-84
2023/02/26 15:32:29;;;;;;;6.00;3.00;;;;;;;4.23;74.18;100495.34;180846;1260;44124;-84
2023/02/26 15:36:33;;;;;;;5.50;3.30;;;;;;;3.96;77.52;100503.91;180922;1259;44114;-85
2023/02/26 15:40:37;;;;;;;6.40;2.80;;;;;;;3.82;79.92;100506.70;181013;1259;59955;-85
2023/02/26 15:44:40;;;;;;;5.40;2.90;;;;;;;3.77;79.56;100514.70;180790;1260;44014;-85
2023/02/26 15:49:10;;;;;;;5.40;2.30;;;;;;;3.65;76.73;100520.01;181002;1259;44036;-85
2023/02/26 15:53:29;;;;;;;4.60;2.50;;;;;;;3.50;74.71;100529.64;180958;1259;44346;-85
2023/02/26 15:57:32;;;;;;;3.80;2.50;;;;;;;3.40;74.35;100532.24;180920;1263;44069;-84
2023/02/26 16:01:38;;;;;;;6.00;3.50;;;;;;;3.31;75.02;100537.21;180843;1261;59531;-85
2023/02/26 16:05:42;;;;;;;6.80;4.20;;;;;;;3.27;75.50;100544.57;180824;1260;43987;-85
2023/02/26 16:09:48;;;;;;;7.30;3.00;;;;;;;3.23;75.22;100555.14;180972;1261;44045;-84
2023/02/26 16:13:52;;;;;;;8.20;3.40;;;;;;;3.16;75.39;100560.01;180789;1264;43817;-84
2023/02/26 16:17:57;;;;;;;6.30;2.60;;;;;;;3.06;74.43;100571.50;180757;1263;43944;-84
2023/02/26 16:26:50;;;;;;;5.30;2.40;;;;;;;2.84;75.31;100579.34;169952;1258;79969;-75
2023/02/26 16:31:05;;;;;;;6.60;2.50;;;;;;;2.83;76.02;100580.95;181345;1262;43095;-75
2023/02/26 16:35:15;;;;;;;9.70;3.50;;;;;;;2.84;76.64;100590.38;181475;1261;43136;-74
2023/02/26 16:39:26;;;;;;;5.00;2.90;;;;;;;2.76;75.64;100598.05;181316;1262;43593;-74
2023/02/26 17:17:04;;;;;;;17.30;9.80;;;;;;;2.38;79.59;100656.41;180627;1253;45553;31
2023/02/26 17:45:26;;;;;;;8.10;5.80;;;;;;;2.63;80.64;100693.38;180894;1263;78110;-73
2023/02/26 18:10:00;;;;;;;8.80;4.40;;;;;;;2.11;81.04;100716.98;180953;1263;77853;-73
2023/02/26 18:14:04;;;;;;;12.30;3.90;;;;;;;2.06;81.24;100719.99;181000;1265;43338;-74
2023/02/26 18:18:11;;;;;;;9.80;6.30;;;;;;;2.02;81.81;100727.33;181086;1265;57957;-74
2023/02/26 18:22:17;;;;;;;41.90;21.10;;;;;;;2.02;82.63;100733.08;181027;1266;43632;-71
2023/02/26 18:26:21;;;;;;;110.20;48.90;;;;;;;2.02;81.23;100740.63;181038;1267;43127;-73
2023/02/26 18:30:31;;;;;;;33.90;17.20;;;;;;;2.03;80.79;100743.90;181104;1265;43696;-71
2023/02/26 18:34:34;;;;;;;16.00;7.10;;;;;;;2.03;80.16;100743.55;181031;1265;43697;-74
2023/02/26 18:38:37;;;;;;;6.50;4.90;;;;;;;1.99;81.63;100745.45;180799;1267;79628;-84
2023/02/26 18:42:40;;;;;;;10.70;4.40;;;;;;;1.99;84.07;100753.48;180431;1264;44271;-85
2023/02/26 18:46:44;;;;;;;11.10;7.30;;;;;;;2.03;84.79;100757.90;180256;1263;50367;-84
2023/02/26 18:50:47;;;;;;;13.30;7.40;;;;;;;2.05;85.73;100765.02;180408;1264;43915;-84
2023/02/26 18:54:51;;;;;;;11.50;5.60;;;;;;;2.09;86.15;100770.45;180490;1264;43955;-83
2023/02/26 18:58:54;;;;;;;4.40;3.20;;;;;;;2.12;86.14;100773.65;180318;1265;58733;-83
2023/02/26 19:02:57;;;;;;;6.70;4.50;;;;;;;2.16;85.98;100782.41;180350;1265;43950;-84
2023/02/26 19:07:00;;;;;;;7.00;4.00;;;;;;;2.17;86.16;100788.69;180568;1264;43909;-85
2023/02/26 19:11:04;;;;;;;6.70;4.70;;;;;;;2.22;85.71;100798.13;180366;1265;43953;-84
2023/02/26 19:15:08;;;;;;;15.30;7.40;;;;;;;2.29;85.75;100804.66;180520;1264;43994;-84
2023/02/26 19:19:12;;;;;;;8.40;5.10;;;;;;;2.30;84.99;100802.52;180248;1265;60083;-86
2023/02/26 19:23:16;;;;;;;9.20;4.90;;;;;;;2.27;85.43;100807.39;180439;1265;43794;-87
2023/02/26 19:27:20;;;;;;;8.20;5.50;;;;;;;2.23;85.64;100811.20;180556;1264;45804;-87
2023/02/26 19:31:23;;;;;;;15.20;7.00;;;;;;;2.16;86.49;100816.54;180413;1264;44030;-83
2023/02/26 19:35:28;;;;;;;16.20;7.80;;;;;;;2.09;86.79;100822.03;180387;1265;43943;-84
2023/02/26 19:39:33;;;;;;;13.00;7.90;;;;;;;2.02;86.87;100823.72;180388;1264;60156;-83
2023/02/26 19:43:36;;;;;;;11.60;5.20;;;;;;;2.03;87.48;100829.79;180496;1265;43980;-83
2023/02/26 19:47:40;;;;;;;10.20;5.80;;;;;;;2.05;87.76;100838.45;180302;1265;43841;-82
2023/02/26 19:51:44;;;;;;;28.90;6.40;;;;;;;2.05;88.05;100843.02;180287;1265;44281;-84
2023/02/26 19:55:49;;;;;;;8.00;4.90;;;;;;;1.99;88.24;100847.27;180339;1264;44117;-83
2023/02/26 19:59:52;;;;;;;9.10;6.20;;;;;;;1.87;88.97;100853.30;180752;1265;59659;-84
2023/02/26 20:03:55;;;;;;;15.30;3.90;;;;;;;1.82;89.16;100863.77;180636;1265;43904;-84
2023/02/26 20:07:58;;;;;;;9.50;4.20;;;;;;;1.80;89.79;100863.69;180701;1265;44178;-84
2023/02/26 20:12:01;;;;;;;11.80;6.10;;;;;;;1.77;89.26;100871.48;180507;1265;43902;-84
2023/02/26 20:16:07;;;;;;;16.90;6.60;;;;;;;1.76;89.48;100876.26;180371;1265;44080;-84
2023/02/26 20:20:10;;;;;;;9.70;5.60;;;;;;;1.69;89.81;100882.63;180493;1264;59899;-84
2023/02/26 20:24:14;;;;;;;10.60;6.10;;;;;;;1.67;89.99;100887.91;180503;1265;44076;-84
2023/02/26 20:28:18;;;;;;;16.00;8.10;;;;;;;1.74;90.09;100889.42;180477;1265;44192;-84
2023/02/26 20:32:22;;;;;;;11.40;7.10;;;;;;;1.72;90.14;100889.84;180223;1265;43798;-83
2023/02/26 20:36:25;;;;;;;11.60;6.10;;;;;;;1.73;90.64;100891.73;180506;1265;44237;-82
2023/02/26 20:40:28;;;;;;;11.50;6.60;;;;;;;1.77;90.41;100893.20;180460;1264;57935;-82
2023/02/26 20:44:31;;;;;;;12.30;5.20;;;;;;;1.76;90.56;100904.39;180397;1264;44044;-83
2023/02/26 20:48:39;;;;;;;11.20;5.90;;;;;;;1.77;90.29;100906.65;180522;1264;44175;-83
2023/02/26 20:52:42;;;;;;;19.60;6.90;;;;;;;1.82;89.70;100913.47;180630;1265;45008;-83
2023/02/26 20:56:47;;;;;;;11.00;6.00;;;;;;;1.91;89.39;100916.81;180568;1264;43787;-83
2023/02/26 21:00:54;;;;;;;20.10;9.00;;;;;;;1.97;88.91;100918.19;180557;1265;59577;-83
2023/02/26 21:04:57;;;;;;;13.40;7.60;;;;;;;1.97;88.44;100919.59;180530;1264;44044;-83
2023/02/26 21:09:01;;;;;;;12.60;7.30;;;;;;;2.03;88.55;100921.13;180530;1265;43786;-83
2023/02/26 21:13:03;;;;;;;16.80;7.10;;;;;;;1.97;87.94;100920.83;180563;1264;44066;-83
2023/02/26 21:17:06;;;;;;;17.50;8.80;;;;;;;1.96;88.44;100919.96;180495;1264;43760;-83
2023/02/26 21:21:09;;;;;;;11.40;8.20;;;;;;;1.97;88.55;100923.62;180495;1264;58196;-83
2023/02/26 21:25:12;;;;;;;14.60;6.60;;;;;;;1.97;88.46;100927.98;180281;1265;44291;-83
2023/02/26 21:29:15;;;;;;;10.50;6.20;;;;;;;1.98;88.71;100925.52;180536;1266;44423;-82
2023/02/26 21:33:19;;;;;;;14.20;7.00;;;;;;;1.94;88.65;100932.46;180580;1266;44153;-83
2023/02/26 21:37:22;;;;;;;17.10;9.00;;;;;;;1.97;88.63;100933.05;180588;1264;44113;-83
2023/02/26 21:41:25;;;;;;;19.40;9.10;;;;;;;1.94;88.56;100936.83;180635;1265;57818;-83
2023/02/26 21:45:29;;;;;;;17.70;7.50;;;;;;;1.94;88.62;100942.27;180619;1264;44100;-82
2023/02/26 21:49:32;;;;;;;17.70;9.00;;;;;;;1.98;88.69;100946.66;180641;1264;44117;-83
2023/02/26 21:53:34;;;;;;;17.90;9.10;;;;;;;2.01;88.56;100950.60;180648;1264;43730;-83
2023/02/26 21:57:37;;;;;;;14.00;7.40;;;;;;;2.05;88.33;100952.20;180629;1264;43842;-82
2023/02/26 22:01:41;;;;;;;9.70;6.00;;;;;;;2.01;87.35;100950.44;180625;1263;57943;-83
2023/02/26 22:05:44;;;;;;;10.10;5.40;;;;;;;1.99;87.68;100956.09;180440;1265;43914;-83
2023/02/26 22:09:47;;;;;;;15.00;6.60;;;;;;;1.98;86.70;100958.39;180647;1264;44011;-83
2023/02/26 22:13:50;;;;;;;14.30;5.70;;;;;;;1.96;87.50;100960.76;180647;1264;44033;-83
2023/02/26 22:17:53;;;;;;;9.60;6.20;;;;;;;1.91;87.21;100965.30;180563;1264;43779;-82
2023/02/26 22:21:56;;;;;;;12.60;7.50;;;;;;;1.95;86.41;100967.58;180535;1265;60168;-83
2023/02/26 22:26:00;;;;;;;19.30;6.40;;;;;;;1.96;86.25;100971.05;180563;1264;43818;-83
2023/02/26 22:30:05;;;;;;;12.70;7.70;;;;;;;1.92;85.83;100972.60;180655;1264;44065;-83
2023/02/26 22:34:08;;;;;;;15.80;7.60;;;;;;;1.93;85.70;100982.89;180619;1264;44203;-83
2023/02/26 22:38:11;;;;;;;17.50;7.90;;;;;;;1.90;84.90;100983.52;180679;1264;43757;-83
2023/02/26 22:42:14;;;;;;;14.30;6.50;;;;;;;1.89;85.10;100987.05;180612;1264;58417;-83
2023/02/26 22:46:17;;;;;;;16.80;8.10;;;;;;;1.89;85.77;100991.77;180642;1264;43812;-83
2023/02/26 22:50:20;;;;;;;12.50;7.50;;;;;;;1.89;85.67;100990.36;180585;1264;43859;-82
2023/02/26 22:54:23;;;;;;;16.60;7.70;;;;;;;1.91;84.87;100993.08;180528;1265;44094;-82
2023/02/26 22:58:26;;;;;;;14.40;8.20;;;;;;;1.92;84.76;100993.58;180578;1266;44085;-82
2023/02/26 23:02:29;;;;;;;20.80;11.40;;;;;;;1.91;84.57;100997.48;180438;1264;57921;-84